East Glacier Park, Montana
Current Conditions -  °F | °C
As of 3:56 AM on Sunday 23 Nov 2014 (Local Time) from KCTB Reporting Station
Overcast Overcast  
Wind Chill: 19°   Ceiling: 6500
Heat Index: 29°   Visibility: 10mi
Dew Point: 21°   Wind: 12mph
Humidity: 72%   Direction: 290°WNW
Pressure: 29.78"   Gusts: NA
Location:  48.44°N, 113.21°W
Report Text: KCTB 231056Z AUTO 29010KT 10SM BKN065 OVC085 M02/M06 A2978 RMK AO2 WSHFT 0951 SLP108 T10171061
Loading
Personal Weather Stations






























Interactive Weather Map New forecast layout! Learn more

10-Day Weather Forecast

Advertisements
Track Severe Weather on mobile